createdAt,value
2019-03-01T00:01:15.691Z,97543.66
2019-03-01T00:03:47.713Z,97547.22
2019-03-01T00:06:26.531Z,97558.41
2019-03-01T00:09:40.074Z,97536.05
2019-03-01T00:12:50.501Z,97547.80
2019-03-01T00:15:41.513Z,97542.42
2019-03-01T00:18:36.056Z,97542.84
2019-03-01T00:21:30.205Z,97540.22
2019-03-01T00:24:41.844Z,97555.84
2019-03-01T00:27:53.169Z,97549.44
2019-03-01T00:30:46.830Z,97540.14
2019-03-01T00:34:07.293Z,97549.50
2019-03-01T00:36:47.128Z,97550.22
2019-03-01T00:39:35.683Z,97546.81
2019-03-01T00:42:37.050Z,97540.86
2019-03-01T00:45:07.689Z,97540.80
2019-03-01T00:47:38.241Z,97541.20
2019-03-01T00:50:08.765Z,97533.61
2019-03-01T00:52:40.421Z,97547.45
2019-03-01T00:55:10.889Z,97542.48
2019-03-01T00:57:41.439Z,97546.52
2019-03-01T01:00:18.614Z,97536.80
2019-03-01T01:02:49.916Z,97535.46
2019-03-01T01:05:21.056Z,97531.63
2019-03-01T01:07:53.320Z,97528.93
2019-03-01T01:10:40.048Z,97534.83
2019-03-01T01:13:11.485Z,97526.09
2019-03-01T01:15:42.616Z,97533.73
2019-03-01T01:18:13.425Z,97522.20
2019-03-01T01:20:44.310Z,97531.23
2019-03-01T01:23:15.244Z,97525.04
2019-03-01T01:25:46.606Z,97524.47
2019-03-01T01:28:17.418Z,97528.59
2019-03-01T01:30:47.864Z,97523.98
2019-03-01T01:33:18.761Z,97521.70
2019-03-01T01:35:49.287Z,97523.50
2019-03-01T01:38:21.175Z,97516.99
2019-03-01T01:40:51.974Z,97533.35
2019-03-01T01:43:22.482Z,97523.28
2019-03-01T01:45:53.184Z,97523.22
2019-03-01T01:48:23.934Z,97517.79
2019-03-01T01:50:54.926Z,97525.48
2019-03-01T01:53:25.654Z,97529.38
2019-03-01T01:55:57.295Z,97533.80
2019-03-01T01:58:27.682Z,97545.23
2019-03-01T02:00:58.156Z,97540.77
2019-03-01T02:03:28.789Z,97528.84
2019-03-01T02:06:01.228Z,97537.52
2019-03-01T02:08:32.992Z,97529.55
2019-03-01T02:11:03.660Z,97521.95
2019-03-01T02:13:34.267Z,97524.70
2019-03-01T02:16:04.905Z,97516.73
2019-03-01T02:18:36.026Z,97517.87
2019-03-01T02:21:06.466Z,97521.38
2019-03-01T02:23:37.044Z,97519.83
2019-03-01T02:26:09.287Z,97526.98
2019-03-01T02:28:41.305Z,97524.05
2019-03-01T02:31:12.118Z,97518.55
2019-03-01T02:33:42.776Z,97516.83
2019-03-01T02:36:14.268Z,97515.58
2019-03-01T02:38:44.807Z,97516.23
2019-03-01T02:41:15.583Z,97519.59
2019-03-01T02:43:46.265Z,97517.05
2019-03-01T02:46:17.279Z,97522.20
2019-03-01T02:48:47.799Z,97521.50
2019-03-01T02:51:18.339Z,97517.56
2019-03-01T02:53:49.173Z,97522.33
2019-03-01T02:56:19.705Z,97518.37
2019-03-01T02:58:50.120Z,97519.81
2019-03-01T03:01:20.517Z,97523.59
2019-03-01T03:03:52.083Z,97521.74
2019-03-01T03:06:29.489Z,97528.57
2019-03-01T03:09:00.029Z,97536.15
2019-03-01T03:11:30.941Z,97529.89
2019-03-01T03:14:01.762Z,97537.27
2019-03-01T03:16:32.663Z,97532.93
2019-03-01T03:19:03.200Z,97530.48
2019-03-01T03:21:33.575Z,97531.48
2019-03-01T03:24:04.193Z,97531.13
2019-03-01T03:26:35.103Z,97525.16
2019-03-01T03:29:05.743Z,97530.35
2019-03-01T03:31:36.354Z,97534.06
2019-03-01T03:34:06.768Z,97533.31
2019-03-01T03:36:37.441Z,97527.44
2019-03-01T03:39:12.112Z,97537.20
2019-03-01T03:41:42.930Z,97527.20
2019-03-01T03:44:13.515Z,97527.20
2019-03-01T03:46:44.224Z,97537.52
2019-03-01T03:49:16.470Z,97531.09
2019-03-01T03:51:47.287Z,97536.98
2019-03-01T03:54:18.425Z,97535.31
2019-03-01T03:56:49.216Z,97539.95
2019-03-01T03:59:19.910Z,97531.84
2019-03-01T04:01:51.040Z,97539.87
2019-03-01T04:04:21.724Z,97536.80
2019-03-01T04:06:52.632Z,97532.78
2019-03-01T04:09:23.347Z,97533.13
2019-03-01T04:11:54.357Z,97540.13
2019-03-01T04:14:24.968Z,97529.53
2019-03-01T04:16:55.378Z,97541.69
2019-03-01T04:19:25.960Z,97533.46
2019-03-01T04:21:56.483Z,97542.45
2019-03-01T04:24:27.150Z,97550.36
2019-03-01T04:26:57.784Z,97545.55
2019-03-01T04:29:28.281Z,97545.33
2019-03-01T04:31:58.766Z,97548.02
2019-03-01T04:34:29.911Z,97550.92
2019-03-01T04:37:00.525Z,97550.69
2019-03-01T04:39:31.318Z,97550.09
2019-03-01T04:42:01.850Z,97549.27
2019-03-01T04:44:33.227Z,97547.10
2019-03-01T04:47:03.761Z,97542.58
2019-03-01T04:49:34.456Z,97534.88
2019-03-01T04:52:32.244Z,97540.33
2019-03-01T04:55:02.793Z,97532.55
2019-03-01T04:57:33.576Z,97532.47
2019-03-01T05:00:04.654Z,97533.91
2019-03-01T05:02:35.206Z,97527.97
2019-03-01T05:05:06.699Z,97534.28
2019-03-01T05:07:37.371Z,97540.75
2019-03-01T05:10:09.045Z,97544.98
2019-03-01T05:12:39.526Z,97541.72
2019-03-01T05:15:12.319Z,97542.05
2019-03-01T05:17:43.093Z,97551.08
2019-03-01T05:20:14.341Z,97570.20
2019-03-01T05:22:45.043Z,97556.97
2019-03-01T05:25:15.548Z,97555.54
2019-03-01T05:27:46.054Z,97555.92
2019-03-01T05:30:17.136Z,97553.88
2019-03-01T05:32:47.845Z,97563.84
2019-03-01T05:35:18.713Z,97562.31
2019-03-01T05:37:50.290Z,97563.84
2019-03-01T05:40:20.683Z,97568.80
2019-03-01T05:42:51.421Z,97568.48
2019-03-01T05:45:23.295Z,97573.41
2019-03-01T05:47:53.810Z,97571.66
2019-03-01T05:50:24.441Z,97566.73
2019-03-01T05:52:55.676Z,97574.52
2019-03-01T05:55:26.081Z,97575.55
2019-03-01T05:58:39.559Z,97579.67
2019-03-01T06:01:30.326Z,97581.71
2019-03-01T06:04:33.803Z,97582.53
2019-03-01T06:07:44.943Z,97581.70
2019-03-01T06:10:27.481Z,97578.53
2019-03-01T06:13:26.001Z,97590.64
2019-03-01T06:16:21.302Z,97588.30
2019-03-01T06:19:16.494Z,97586.04
2019-03-01T06:22:33.069Z,97584.06
2019-03-01T06:25:43.049Z,97587.97
2019-03-01T06:29:12.163Z,97596.81
2019-03-01T06:32:16.959Z,97593.92
2019-03-01T06:35:24.763Z,97595.03
2019-03-01T06:38:50.089Z,97600.97
2019-03-01T06:41:49.438Z,97611.97
2019-03-01T06:44:39.874Z,97601.79
2019-03-01T06:47:42.231Z,97598.70
2019-03-01T06:50:20.549Z,97599.45
2019-03-01T06:52:51.097Z,97610.46
2019-03-01T06:55:44.604Z,97620.55
2019-03-01T06:58:32.891Z,97606.13
2019-03-01T07:01:17.201Z,97616.41
2019-03-01T07:03:53.067Z,97602.98
2019-03-01T07:06:23.638Z,97600.27
2019-03-01T07:08:54.096Z,97599.63
2019-03-01T07:11:24.539Z,97608.11
2019-03-01T07:13:54.961Z,97602.95
2019-03-01T07:16:25.556Z,97612.91
2019-03-01T07:18:56.483Z,97607.97
2019-03-01T07:21:27.076Z,97611.80
2019-03-01T07:23:57.763Z,97601.70
2019-03-01T07:26:28.312Z,97600.12
2019-03-01T07:28:58.840Z,97596.96
2019-03-01T07:31:29.465Z,97608.66
2019-03-01T07:34:00.010Z,97605.00
2019-03-01T07:36:30.777Z,97599.31
2019-03-01T07:39:01.286Z,97605.84
2019-03-01T07:41:33.491Z,97608.19
2019-03-01T07:44:03.983Z,97613.19
2019-03-01T07:46:34.386Z,97610.69
2019-03-01T07:49:05.858Z,97612.34
2019-03-01T07:51:36.415Z,97602.53
2019-03-01T07:54:06.786Z,97612.14
2019-03-01T07:56:39.954Z,97595.91
2019-03-01T07:59:09.610Z,97587.77
2019-03-01T08:01:40.082Z,97579.34
2019-03-01T08:04:10.631Z,97597.73
2019-03-01T08:06:41.169Z,97587.59
2019-03-01T08:09:13.318Z,97590.03
2019-03-01T08:11:43.855Z,97580.48
2019-03-01T08:14:14.378Z,97580.72
2019-03-01T08:16:44.869Z,97584.11
2019-03-01T08:19:22.427Z,97588.33
2019-03-01T08:21:49.845Z,97587.66
2019-03-01T08:24:20.234Z,97580.69
2019-03-01T08:26:50.580Z,97580.80
2019-03-01T08:29:21.112Z,97583.38
2019-03-01T08:31:52.727Z,97572.16
2019-03-01T08:34:23.951Z,97582.44
2019-03-01T08:36:54.329Z,97593.22
2019-03-01T08:39:25.033Z,97585.35
2019-03-01T08:42:00.143Z,97580.81
2019-03-01T08:44:27.734Z,97584.17
2019-03-01T08:46:58.198Z,97573.59
2019-03-01T08:49:28.633Z,97585.09
2019-03-01T08:52:01.514Z,97584.31
2019-03-01T08:54:31.263Z,97577.45
2019-03-01T08:57:01.967Z,97573.77
2019-03-01T08:59:32.373Z,97566.83
2019-03-01T09:02:02.891Z,97580.31
2019-03-01T09:04:37.738Z,97578.83
2019-03-01T09:07:05.542Z,97582.41
2019-03-01T09:09:36.108Z,97583.57
2019-03-01T09:12:06.809Z,97575.54
2019-03-01T09:14:38.725Z,97574.34
2019-03-01T09:17:09.237Z,97571.14
2019-03-01T09:19:40.197Z,97579.94
2019-03-01T09:22:10.666Z,97569.72
2019-03-01T09:24:41.348Z,97571.97
2019-03-01T09:27:11.868Z,97564.22
2019-03-01T09:29:42.423Z,97560.39
2019-03-01T09:32:13.061Z,97580.77
2019-03-01T09:34:44.314Z,97559.52
2019-03-01T09:37:14.780Z,97567.32
2019-03-01T09:39:45.321Z,97556.70
2019-03-01T09:42:16.344Z,97560.90
2019-03-01T09:44:46.911Z,97563.97
2019-03-01T09:47:17.342Z,97555.44
2019-03-01T09:49:47.703Z,97556.82
2019-03-01T09:52:20.372Z,97570.63
2019-03-01T09:54:50.296Z,97561.65
2019-03-01T09:57:20.757Z,97556.91
2019-03-01T09:59:51.258Z,97554.56
2019-03-01T10:02:21.697Z,97553.35
2019-03-01T10:04:52.451Z,97549.94
2019-03-01T10:07:22.887Z,97537.11
2019-03-01T10:09:53.371Z,97538.28
2019-03-01T10:12:23.806Z,97542.31
2019-03-01T10:14:54.281Z,97547.47
2019-03-01T10:17:24.701Z,97524.89
2019-03-01T10:19:55.104Z,97537.75
2019-03-01T10:22:26.844Z,97532.43
2019-03-01T10:24:57.514Z,97515.77
2019-03-01T10:27:27.856Z,97518.13
2019-03-01T10:29:58.472Z,97506.73
2019-03-01T10:32:28.916Z,97503.13
2019-03-01T10:34:59.663Z,97502.75
2019-03-01T10:37:31.592Z,97499.92
2019-03-01T10:40:02.140Z,97497.23
2019-03-01T10:42:32.736Z,97497.89
2019-03-01T10:45:03.224Z,97490.46
2019-03-01T10:47:34.877Z,97485.25
2019-03-01T10:50:06.380Z,97487.22
2019-03-01T10:52:36.810Z,97479.70
2019-03-01T10:55:08.547Z,97467.41
2019-03-01T10:57:39.258Z,97475.47
2019-03-01T11:00:18.014Z,97479.41
2019-03-01T11:02:48.768Z,97471.98
2019-03-01T11:05:19.800Z,97463.87
2019-03-01T11:07:51.288Z,97453.09
2019-03-01T11:10:24.470Z,97460.53
2019-03-01T11:12:55.097Z,97458.16
2019-03-01T11:15:25.631Z,97466.55
2019-03-01T11:17:56.162Z,97456.16
2019-03-01T11:20:27.014Z,97464.38
2019-03-01T11:22:57.782Z,97459.34
2019-03-01T11:25:28.347Z,97445.84
2019-03-01T11:27:58.893Z,97441.23
2019-03-01T11:30:30.328Z,97442.38
2019-03-01T11:33:01.155Z,97442.12
2019-03-01T11:35:31.680Z,97437.16
2019-03-01T11:38:02.348Z,97447.75
2019-03-01T11:40:33.540Z,97445.84
2019-03-01T11:43:04.327Z,97450.76
2019-03-01T11:45:34.712Z,97448.66
2019-03-01T11:48:05.966Z,97442.45
2019-03-01T11:50:36.482Z,97447.64
2019-03-01T11:53:06.980Z,97450.98
2019-03-01T11:55:37.428Z,97429.84
2019-03-01T11:58:07.921Z,97437.42
2019-03-01T12:00:38.603Z,97431.80
2019-03-01T12:03:08.978Z,97435.51
2019-03-01T12:05:39.523Z,97438.56
2019-03-01T12:08:09.898Z,97430.97
2019-03-01T12:10:40.345Z,97421.63
2019-03-01T12:13:10.837Z,97420.38
2019-03-01T12:15:41.458Z,97424.17
2019-03-01T12:18:11.955Z,97428.98
2019-03-01T12:20:42.653Z,97413.45
2019-03-01T12:23:13.286Z,97418.27
2019-03-01T12:25:43.981Z,97415.44
2019-03-01T12:28:14.409Z,97427.11
2019-03-01T12:30:44.972Z,97421.63
2019-03-01T12:33:16.603Z,97414.75
2019-03-01T12:35:47.321Z,97423.18
2019-03-01T12:38:17.913Z,97416.20
2019-03-01T12:40:48.889Z,97420.94
2019-03-01T12:43:19.367Z,97420.68
2019-03-01T12:45:52.660Z,97415.77
2019-03-01T12:48:25.148Z,97424.98
2019-03-01T12:50:56.267Z,97421.44
2019-03-01T12:53:28.212Z,97416.73
2019-03-01T12:55:58.752Z,97413.52
2019-03-01T12:58:29.980Z,97413.67
2019-03-01T13:01:00.562Z,97409.50
2019-03-01T13:03:31.211Z,97402.82
2019-03-01T13:06:03.872Z,97413.28
2019-03-01T13:08:35.475Z,97428.11
2019-03-01T13:11:12.471Z,97409.66
2019-03-01T13:13:43.137Z,97422.55
2019-03-01T13:16:13.531Z,97408.58
2019-03-01T13:18:47.706Z,97420.35
2019-03-01T13:21:18.195Z,97411.84
2019-03-01T13:23:49.392Z,97407.59
2019-03-01T13:26:20.389Z,97406.48
2019-03-01T13:28:53.185Z,97407.92
2019-03-01T13:31:24.787Z,97401.18
2019-03-01T13:33:57.133Z,97407.33
2019-03-01T13:36:28.829Z,97400.83
2019-03-01T13:39:00.344Z,97392.11
2019-03-01T13:41:36.880Z,97398.44
2019-03-01T13:44:06.459Z,97405.47
2019-03-01T13:46:37.896Z,97418.14
2019-03-01T13:49:08.281Z,97403.85
2019-03-01T13:51:39.960Z,97417.70
2019-03-01T13:54:10.628Z,97407.72
2019-03-01T13:56:41.627Z,97419.38
2019-03-01T13:59:13.739Z,97398.20
2019-03-01T14:01:44.551Z,97408.50
2019-03-01T14:04:15.029Z,97398.17
2019-03-01T14:06:45.509Z,97398.66
2019-03-01T14:09:16.197Z,97387.70
2019-03-01T14:11:46.620Z,97396.48
2019-03-01T14:14:17.025Z,97392.48
2019-03-01T14:16:49.170Z,97405.48
2019-03-01T14:19:19.673Z,97394.45
2019-03-01T14:21:50.594Z,97400.59
2019-03-01T14:24:21.366Z,97387.95
2019-03-01T14:26:53.903Z,97386.42
2019-03-01T14:29:24.228Z,97388.63
2019-03-01T14:31:55.077Z,97390.84
2019-03-01T14:34:25.608Z,97397.88
2019-03-01T14:36:56.186Z,97393.21
2019-03-01T14:39:26.794Z,97398.21
2019-03-01T14:41:57.460Z,97395.04
2019-03-01T14:44:30.741Z,97403.94
2019-03-01T14:47:00.364Z,97408.24
2019-03-01T14:49:31.035Z,97405.95
2019-03-01T14:52:01.543Z,97403.03
2019-03-01T14:54:31.914Z,97407.77
2019-03-01T14:57:11.867Z,97410.93
2019-03-01T15:00:14.053Z,97416.23
2019-03-01T15:03:05.179Z,97417.58
2019-03-01T15:05:38.654Z,97421.53
2019-03-01T15:08:07.971Z,97415.94
2019-03-01T15:10:38.630Z,97428.77
2019-03-01T15:13:09.119Z,97411.33
2019-03-01T15:15:39.590Z,97415.27
2019-03-01T15:18:10.345Z,97410.85
2019-03-01T15:20:42.921Z,97432.23
2019-03-01T15:23:15.034Z,97416.27
2019-03-01T15:25:48.550Z,97419.39
2019-03-01T15:28:17.956Z,97416.84
2019-03-01T15:30:50.601Z,97418.48
2019-03-01T15:33:22.235Z,97411.31
2019-03-01T15:35:52.864Z,97411.31
2019-03-01T15:38:23.842Z,97409.97
2019-03-01T15:40:55.563Z,97414.23
2019-03-01T15:43:26.534Z,97423.11
2019-03-01T15:45:58.950Z,97420.84
2019-03-01T15:48:29.557Z,97419.35
2019-03-01T15:51:02.459Z,97418.70
2019-03-01T15:53:32.232Z,97426.77
2019-03-01T15:56:05.929Z,97422.16
2019-03-01T15:58:34.867Z,97429.00
2019-03-01T16:01:11.131Z,97434.63
2019-03-01T16:03:41.504Z,97425.94
2019-03-01T16:06:17.513Z,97434.93
2019-03-01T16:08:48.078Z,97442.58
2019-03-01T16:11:21.222Z,97458.19
2019-03-01T16:13:51.755Z,97445.63
2019-03-01T16:16:22.407Z,97442.80
2019-03-01T16:18:53.906Z,97456.70
2019-03-01T16:21:24.792Z,97460.46
2019-03-01T16:23:55.532Z,97462.78
2019-03-01T16:26:29.831Z,97468.16
2019-03-01T16:28:58.269Z,97487.31
2019-03-01T16:31:31.933Z,97472.48
2019-03-01T16:34:04.376Z,97482.92
2019-03-01T16:36:36.147Z,97473.41
2019-03-01T16:39:12.592Z,97485.09
2019-03-01T16:41:43.980Z,97486.78
2019-03-01T16:44:14.452Z,97486.99
2019-03-01T16:46:45.055Z,97486.99
2019-03-01T16:49:16.295Z,97485.34
2019-03-01T16:51:46.823Z,97491.94
2019-03-01T16:54:18.218Z,97498.89
2019-03-01T16:56:49.303Z,97506.95
2019-03-01T16:59:19.841Z,97511.41
2019-03-01T17:01:50.486Z,97517.66
2019-03-01T17:04:27.131Z,97521.78
2019-03-01T17:06:54.761Z,97535.64
2019-03-01T17:09:26.218Z,97548.30
2019-03-01T17:11:56.974Z,97567.11
2019-03-01T17:14:28.573Z,97560.36
2019-03-01T17:17:00.748Z,97565.68
2019-03-01T17:19:31.383Z,97564.45
2019-03-01T17:22:02.997Z,97565.31
2019-03-01T17:24:33.514Z,97564.39
2019-03-01T17:27:06.888Z,97568.03
2019-03-01T17:29:39.237Z,97563.48
2019-03-01T17:32:09.517Z,97564.88
2019-03-01T17:34:41.896Z,97549.77
2019-03-01T17:37:13.307Z,97588.78
2019-03-01T17:39:44.851Z,97594.86
2019-03-01T17:42:17.541Z,97587.63
2019-03-01T17:44:48.709Z,97589.03
2019-03-01T17:47:19.466Z,97581.67
2019-03-01T17:49:50.269Z,97572.44
2019-03-01T17:52:21.190Z,97572.47
2019-03-01T17:54:52.642Z,97575.62
2019-03-01T17:57:24.262Z,97586.59
2019-03-01T17:59:55.761Z,97588.02
2019-03-01T18:02:26.671Z,97592.59
2019-03-01T18:04:57.810Z,97610.70
2019-03-01T18:07:28.564Z,97592.60
2019-03-01T18:09:59.623Z,97605.13
2019-03-01T18:12:30.311Z,97611.62
2019-03-01T18:15:01.839Z,97620.55
2019-03-01T18:17:36.241Z,97622.27
2019-03-01T18:20:06.354Z,97630.97
2019-03-01T18:22:36.992Z,97630.42
2019-03-01T18:25:09.685Z,97637.56
2019-03-01T18:27:41.149Z,97638.09
2019-03-01T18:30:19.741Z,97648.78
2019-03-01T18:32:50.377Z,97639.50
2019-03-01T18:35:21.190Z,97662.47
2019-03-01T18:37:54.896Z,97635.12
2019-03-01T18:40:23.990Z,97644.77
2019-03-01T18:42:54.525Z,97681.80
2019-03-01T18:45:25.313Z,97671.11
2019-03-01T18:47:56.091Z,97675.54
2019-03-01T18:50:31.164Z,97688.16
2019-03-01T18:53:03.779Z,97679.61
2019-03-01T18:55:35.071Z,97680.95
2019-03-01T18:58:05.996Z,97692.42
2019-03-01T19:00:37.732Z,97690.99
2019-03-01T19:03:08.692Z,97692.44
2019-03-01T19:05:41.176Z,97692.44
2019-03-01T19:08:13.648Z,97697.93
2019-03-01T19:10:53.750Z,97695.59
2019-03-01T19:13:16.418Z,97705.78
2019-03-01T19:15:48.121Z,97704.73
2019-03-01T19:18:19.181Z,97704.05
2019-03-01T19:20:50.065Z,97712.18
2019-03-01T19:23:20.673Z,97715.00
2019-03-01T19:25:51.803Z,97717.68
2019-03-01T19:28:23.574Z,97715.97
2019-03-01T19:30:54.541Z,97709.60
2019-03-01T19:33:27.708Z,97719.19
2019-03-01T19:36:00.562Z,97724.02
2019-03-01T19:38:30.721Z,97725.65
2019-03-01T19:41:03.656Z,97739.36
2019-03-01T19:43:34.384Z,97735.32
2019-03-01T19:46:04.985Z,97737.80
2019-03-01T19:48:37.295Z,97745.72
2019-03-01T19:51:07.992Z,97746.85
2019-03-01T19:53:39.191Z,97739.14
2019-03-01T19:56:09.539Z,97763.69
2019-03-01T19:58:40.618Z,97768.22
2019-03-01T20:01:10.955Z,97765.02
2019-03-01T20:03:42.590Z,97753.08
2019-03-01T20:06:13.802Z,97769.52
2019-03-01T20:08:45.707Z,97771.06
2019-03-01T20:11:16.223Z,97776.49
2019-03-01T20:13:46.821Z,97778.23
2019-03-01T20:16:19.719Z,97783.47
2019-03-01T20:18:51.293Z,97791.48
2019-03-01T20:21:21.829Z,97782.03
2019-03-01T20:23:52.688Z,97790.12
2019-03-01T20:26:26.482Z,97794.31
2019-03-01T20:28:58.730Z,97803.55
2019-03-01T20:31:30.434Z,97805.81
2019-03-01T20:34:02.898Z,97808.73
2019-03-01T20:36:33.263Z,97811.23
2019-03-01T20:39:05.727Z,97810.50
2019-03-01T20:41:40.140Z,97811.52
2019-03-01T20:44:10.574Z,97817.44
2019-03-01T20:46:43.944Z,97825.55
2019-03-01T20:49:14.392Z,97821.31
2019-03-01T20:51:46.105Z,97833.07
2019-03-01T20:54:16.577Z,97835.63
2019-03-01T20:56:51.643Z,97849.47
2019-03-01T20:59:21.512Z,97843.48
2019-03-01T21:01:52.449Z,97838.67
2019-03-01T21:04:24.876Z,97856.80
2019-03-01T21:06:55.782Z,97848.14
2019-03-01T21:09:26.371Z,97854.02
2019-03-01T21:11:57.750Z,97848.30
2019-03-01T21:14:31.390Z,97871.06
2019-03-01T21:17:02.080Z,97863.12
2019-03-01T21:19:33.291Z,97866.30
2019-03-01T21:22:04.777Z,97880.73
2019-03-01T21:24:37.282Z,97882.33
2019-03-01T21:27:08.388Z,97888.38
2019-03-01T21:29:39.134Z,97899.09
2019-03-01T21:32:11.727Z,97879.69
2019-03-01T21:34:42.459Z,97895.75
2019-03-01T21:37:13.742Z,97903.30
2019-03-01T21:39:44.597Z,97910.79
2019-03-01T21:42:16.945Z,97905.13
2019-03-01T21:44:48.811Z,97902.67
2019-03-01T21:47:19.664Z,97912.00
2019-03-01T21:49:50.448Z,97917.09
2019-03-01T21:52:21.105Z,97920.37
2019-03-01T21:54:52.313Z,97922.42
2019-03-01T21:57:24.066Z,97928.50
2019-03-01T21:59:56.734Z,97933.01
2019-03-01T22:02:27.782Z,97936.55
2019-03-01T22:04:58.556Z,97936.09
2019-03-01T22:07:29.254Z,97946.59
2019-03-01T22:10:01.407Z,97938.47
2019-03-01T22:12:32.614Z,97942.39
2019-03-01T22:15:04.934Z,97944.59
2019-03-01T22:17:35.892Z,97953.92
2019-03-01T22:20:08.986Z,97942.14
2019-03-01T22:22:41.114Z,97954.75
2019-03-01T22:25:11.619Z,97950.37
2019-03-01T22:27:42.746Z,97951.70
2019-03-01T22:30:16.081Z,97961.66
2019-03-01T22:32:47.651Z,97956.91
2019-03-01T22:35:20.860Z,97960.58
2019-03-01T22:37:54.213Z,97966.78
2019-03-01T22:40:27.885Z,97961.52
2019-03-01T22:42:58.926Z,97963.59
2019-03-01T22:45:29.488Z,97957.48
2019-03-01T22:48:01.025Z,97949.70
2019-03-01T22:50:31.628Z,97955.53
2019-03-01T22:53:06.602Z,97961.78
2019-03-01T22:55:37.601Z,97959.95
2019-03-01T22:58:10.404Z,97963.61
2019-03-01T23:01:10.336Z,97961.41
2019-03-01T23:03:42.752Z,97968.11
2019-03-01T23:06:14.685Z,97973.75
2019-03-01T23:08:47.737Z,97977.33
2019-03-01T23:11:18.293Z,97975.23
2019-03-01T23:13:52.776Z,97985.05
2019-03-01T23:16:23.234Z,97983.72
2019-03-01T23:18:56.603Z,97985.45
2019-03-01T23:21:26.232Z,97986.62
2019-03-01T23:23:59.695Z,97984.20
2019-03-01T23:26:29.658Z,97989.88
2019-03-01T23:29:00.285Z,97991.98
2019-03-01T23:31:30.997Z,97997.51
2019-03-01T23:34:03.604Z,98002.77
2019-03-01T23:36:35.536Z,97993.05
2019-03-01T23:39:07.028Z,98003.33
2019-03-01T23:41:39.169Z,98005.16
2019-03-01T23:44:09.555Z,98001.63
2019-03-01T23:46:40.073Z,98011.31
2019-03-01T23:49:12.206Z,98013.28
2019-03-01T23:51:45.331Z,98013.28
2019-03-01T23:54:15.096Z,98013.28
2019-03-01T23:56:45.511Z,98012.98
2019-03-01T23:59:16.928Z,98022.47
